AirNav   Advertisement
 
 1519 users online  

2NJ2 Sportland Pier Heliport
North Wildwood, New Jersey, USA

GOING TO NORTH WILDWOOD?


FAA INFORMATION EFFECTIVE 20 JULY 2017

Location

FAA Identifier: 2NJ2
Lat/Long: 39-59-24.0000N / 074-48-05.0000W
39-59.400000N / 074-48.083333W
39.9900000 / -74.8013889
(estimated)
Elevation: 10 ft. / 3 m (estimated)
Variation: 11W (1995)
From city: 1 mile NE of NORTH WILDWOOD, NJ
Time zone: UTC -4 (UTC -5 during Standard Time)
Zip code: 08060

Heliport Operations

Heliport use: Private use. Permission required prior to landing
Activation date: 08/1997
Control tower: no
ARTCC: WASHINGTON CENTER
FSS: MILLVILLE FLIGHT SERVICE STATION
Attendance: MAY-SEP 1700-0000
Wind indicator: yes
Segmented circle: no

Heliport Communications

UNICOM: 122.7
WX ASOS at VAY (3 nm SW): 119.325 (609-267-1176)
WX ASOS at PNE (11 nm NW): PHONE 215-677-0146
WX ASOS at TTN (17 nm N): 126.77 (609-538-8690)
WX AWOS-AV at N81 (19 nm S): 122.7

Nearby radio navigation aids

VOR radial/distance  VOR name  Freq  Var
GXUr275/9.5MC GUIRE VORTAC110.6012W
PNEr130/(11.0)NORTH PHILADELPHIA VOR112.0010W
ARDr173/16.5YARDLEY VOR/DME108.2010W
RBVr238/19.0ROBBINSVILLE VORTAC113.8010W
CYNr311/19.9COYLE VORTAC113.4010W
VCNr026/28.2CEDAR LAKE VORTAC115.2010W
OODr057/31.4WOODSTOWN VORTAC112.8010W
ACYr352/33.7ATLANTIC CITY VORTAC108.6010W
COLr248/35.2COLTS NECK VOR/DME115.4011W
SBJr194/35.7SOLBERG VOR/DME112.9010W
PTWr121/37.5POTTSTOWN VORTAC116.5009W

 
NDB name  Hdg/Dist  Freq  Var  ID
LAKEHURST272/21.739611WNEL -. . .-..
AMBLER122/23.727512WING .. -. --.
RAINBOW035/37.636311WRNB .-. -. -...

Heliport Services

Runway Information

Helipad H1

Dimensions: 70 x 70 ft. / 21 x 21 m
Surface: wood
Traffic pattern: leftleft

Heliport Ownership and Management from official FAA records

Ownership: Privately-owned
Owner: SPORTLAND INVESTMENTS, INC
SPORTLAND PIER
N. WILDWOOD, NJ 08260
Phone 813-364-8230
Manager: MARC S SEXTON
SPORTLAND PIER
N. WILDWOOD, NJ 08260
Phone 609-729-3681

Heliport Operational Statistics

Aircraft based on the field: 2
Single engine airplanes: 1
Helicopters: 1
    

Instrument Procedures

There are no published instrument procedures at 2NJ2.

Some nearby airports with instrument procedures:

N14 - Flying W Airport (3 nm S)
KVAY - South Jersey Regional Airport (3 nm SW)
N73 - Red Lion Airport (6 nm SE)
KWRI - McGuire Field (Joint Base Mc Guire Dix Lakehurst) Airport (10 nm E)
KPNE - Northeast Philadelphia Airport (11 nm NW)
19N - Camden County Airport (14 nm SW)
N87 - Trenton-Robbinsville Airport (16 nm NE)
KTTN - Trenton Mercer Airport (17 nm N)
N81 - Hammonton Municipal Airport (19 nm S)
 
Loc | Ops | Rwys | IFR | FBO | Links
Com | Nav | Svcs | Stats | Notes


 
Area around 2NJ2 (Sportland Pier Heliport)
 
Road maps at: MapQuest Bing Google
 
Aerial photo
No photo
 
Sectional chart

 
Airport distance calculator
Flying to Sportland Pier Heliport? Find the distance to fly.

From to 2NJ2

Sunrise and sunset
Times for 28-Jul-2017
 Local
(UTC-4)
 Zulu
(UTC)
Morning civil twilight05:2409:24
Sunrise05:5509:55
Sunset20:1600:16
Evening civil twilight20:4700:47

Current date and time
Zulu (UTC)  28-Jul-2017 15:37:30
Local (UTC-4)  28-Jul-2017 11:37:30
 
METAR
KVAY 
4nm SW 
ASOS 119.325 609-267-1176
281454Z AUTO 12005KT 10SM SCT017 27/23 A2985 RMK AO2 SLP107 T02670228 55002
KWRI 
10nm E 
281510Z 06007KT 10SM BKN021 26/21 A2983 RMK AO2A CIG 018V024 SLP100
KPNE 
11nm NW 
281501Z 05007KT 10SM SCT016 27/21 A2987 RMK AO2 T02720211
KTTN 
18nm N 
ASOS 133.70 609-538-8690
281453Z 09004KT 9SM SCT020 26/22 A2985 RMK AO2 SLP100 T02610217 57004
TAF
KWRI 
10nm E 
281335Z 2813/2916 06006KT 9999 OVC010 QNH2982INS BECMG 2814/2815 08009KT 9999 FEW010 BKN020 QNH2978INS BECMG 2818/2819 11009KT 9999 BKN030 QNH2975INS BECMG 2821/2822 13009KT 8000 -SHRA FEW010 BKN020 QNH2973INS TEMPO 2822/2902 11010G15KT 6000 -TSRA FEW005 BKN010CB BECMG 2901/2902 10009KT 8000 -SHRA BKN007 QNH2964INS BECMG 2911/2912 03012G18KT 8000 -SHRA BKN007 QNH2965INS TX29/2818Z TN21/2910Z
KPNE 
11nm NW 
281120Z 2812/2912 03006KT 6SM BR OVC005 FM281400 05005KT P6SM BKN015 FM281600 08006KT P6SM SCT025 FM282200 09005KT P6SM VCSH OVC035 PROB30 2822/2902 4SM -TSRA OVC030CB FM290200 05007KT 4SM SHRA SCT015 OVC030 PROB30 2902/2906 1SM +TSRA OVC020CB FM290900 04013KT 6SM -SHRA OVC035
KTTN 
18nm N 
281120Z 2812/2912 03004KT 3SM BR OVC003 TEMPO 2812/2813 2SM BR FM281300 04004KT P6SM OVC007 FM281400 05005KT P6SM BKN015 FM281600 08006KT P6SM SCT025 FM282300 10006KT P6SM VCSH OVC035 PROB30 2900/2903 5SM -TSRA OVC030CB FM290300 06007KT 3SM SHRA OVC015 PROB30 2903/2906 2SM TSRA OVC025CB FM290900 03009KT 6SM BR BKN035
NOTAMs
Click for the latest NOTAMs
NOTAMs are issued by the DoD/FAA and will open in a separate window not controlled by AirNav.

 

 
 

Would you like to see your business listed on this page?

 If your business provides an interesting product or service to pilots, flight crews, aircraft, or users of the Sportland Pier Heliport, you should consider listing it here.  To start the listing process, click on the button below
 
Add a business
 

Other Pages about Sportland Pier Heliport

Update a link
 
Copyright © AirNav, LLC. All rights reserved. Privacy Policy  Contact